createdAt,value
2022-12-22T00:01:52.889Z,6.23
2022-12-22T00:04:38.031Z,6.63
2022-12-22T00:07:23.453Z,4.60
2022-12-22T00:10:08.240Z,6.78
2022-12-22T00:12:54.050Z,8.00
2022-12-22T00:15:39.914Z,9.20
2022-12-22T00:18:32.681Z,11.93
2022-12-22T00:21:17.949Z,11.02
2022-12-22T00:24:02.762Z,9.15
2022-12-22T00:26:49.600Z,7.55
2022-12-22T00:29:34.840Z,8.43
2022-12-22T00:32:21.362Z,11.93
2022-12-22T00:35:06.640Z,11.13
2022-12-22T00:37:56.173Z,12.45
2022-12-22T00:40:45.432Z,11.27
2022-12-22T00:43:30.775Z,9.80
2022-12-22T00:46:17.627Z,10.23
2022-12-22T00:49:03.048Z,6.63
2022-12-22T00:51:49.443Z,6.60
2022-12-22T00:54:37.304Z,6.95
2022-12-22T00:57:22.805Z,5.80
2022-12-22T01:00:09.573Z,7.55
2022-12-22T01:02:54.933Z,7.97
2022-12-22T01:05:40.742Z,7.82
2022-12-22T01:08:28.820Z,7.22
2022-12-22T01:11:13.649Z,6.93
2022-12-22T01:13:58.562Z,7.95
2022-12-22T01:16:43.457Z,6.78
2022-12-22T01:19:28.320Z,3.80
2022-12-22T01:22:13.526Z,4.32
2022-12-22T01:24:58.494Z,4.03
2022-12-22T01:27:43.441Z,3.72
2022-12-22T01:30:29.333Z,3.70
2022-12-22T01:33:14.332Z,3.50
2022-12-22T01:35:59.053Z,2.60
2022-12-22T01:38:43.750Z,2.63
2022-12-22T01:41:39.731Z,3.05
2022-12-22T01:44:36.171Z,4.22
2022-12-22T01:47:46.119Z,2.30
2022-12-22T01:50:41.045Z,3.35
2022-12-22T01:53:30.889Z,2.60
2022-12-22T01:56:18.188Z,2.80
2022-12-22T01:59:07.186Z,3.13
2022-12-22T02:01:53.738Z,2.60
2022-12-22T02:04:42.241Z,2.05
2022-12-22T02:07:41.301Z,2.60
2022-12-22T02:10:55.464Z,2.90
2022-12-22T02:13:54.054Z,4.07
2022-12-22T02:16:58.339Z,3.13
2022-12-22T02:20:09.103Z,3.90
2022-12-22T02:23:08.489Z,4.33
2022-12-22T02:26:01.868Z,5.45
2022-12-22T02:28:47.420Z,4.18
2022-12-22T02:31:32.329Z,4.07
2022-12-22T02:34:17.457Z,4.07
2022-12-22T02:37:34.728Z,4.43
2022-12-22T02:40:41.219Z,5.40
2022-12-22T02:43:42.215Z,4.80
2022-12-22T02:46:42.463Z,4.00
2022-12-22T02:49:33.540Z,3.00
2022-12-22T02:52:27.547Z,3.17
2022-12-22T02:55:12.778Z,3.13
2022-12-22T02:57:57.609Z,2.22
2022-12-22T03:00:42.472Z,2.53
2022-12-22T03:03:27.804Z,2.90
2022-12-22T03:06:12.750Z,2.10
2022-12-22T03:08:57.499Z,2.20
2022-12-22T03:11:42.840Z,1.80
2022-12-22T03:14:27.710Z,1.90
2022-12-22T03:17:12.504Z,1.67
2022-12-22T03:19:57.198Z,1.60
2022-12-22T03:22:42.157Z,1.90
2022-12-22T03:25:27.464Z,2.17
2022-12-22T03:27:53.868Z,3.00
2022-12-22T03:30:20.322Z,2.03
2022-12-22T03:32:46.880Z,3.10
2022-12-22T03:35:13.335Z,1.80
2022-12-22T03:37:39.798Z,1.90
2022-12-22T03:40:07.141Z,2.38
2022-12-22T03:42:52.199Z,1.80
2022-12-22T03:45:37.016Z,1.70
2022-12-22T03:48:03.673Z,1.80
2022-12-22T03:50:30.108Z,1.85
2022-12-22T03:52:56.522Z,2.35
2022-12-22T03:55:23.012Z,2.40
2022-12-22T03:57:49.463Z,2.00
2022-12-22T04:00:16.558Z,1.95
2022-12-22T04:02:43.098Z,1.88
2022-12-22T04:05:10.591Z,3.55
2022-12-22T04:07:36.996Z,2.42
2022-12-22T04:10:22.810Z,2.10
2022-12-22T04:12:54.923Z,2.45
2022-12-22T04:15:23.286Z,2.10
2022-12-22T04:17:50.001Z,2.63
2022-12-22T04:20:16.740Z,3.47
2022-12-22T04:22:43.332Z,4.50
2022-12-22T04:25:09.955Z,2.35
2022-12-22T04:27:36.476Z,1.98
2022-12-22T04:30:04.827Z,2.00
2022-12-22T04:32:31.255Z,2.58
2022-12-22T04:34:57.658Z,1.80
2022-12-22T04:37:24.120Z,1.92
2022-12-22T04:39:50.856Z,2.20
2022-12-22T04:42:17.454Z,1.92
2022-12-22T04:44:43.975Z,2.70
2022-12-22T04:47:10.424Z,3.13
2022-12-22T04:49:36.844Z,2.10
2022-12-22T04:52:03.303Z,2.78
2022-12-22T04:54:29.683Z,2.45
2022-12-22T04:56:56.218Z,2.55
2022-12-22T04:59:22.819Z,3.10
2022-12-22T05:01:49.401Z,4.38
2022-12-22T05:04:21.814Z,3.35
2022-12-22T05:06:50.090Z,2.30
2022-12-22T05:09:16.576Z,2.85
2022-12-22T05:11:43.256Z,3.33
2022-12-22T05:14:09.720Z,2.20
2022-12-22T05:16:36.186Z,2.10
2022-12-22T05:19:02.789Z,2.75
2022-12-22T05:21:29.207Z,2.13
2022-12-22T05:23:55.669Z,1.90
2022-12-22T05:26:22.162Z,1.83
2022-12-22T05:28:48.667Z,1.77
2022-12-22T05:31:21.311Z,2.00
2022-12-22T05:33:48.647Z,1.77
2022-12-22T05:36:15.243Z,2.33
2022-12-22T05:38:41.729Z,1.80
2022-12-22T05:41:08.215Z,2.03
2022-12-22T05:43:35.275Z,2.70
2022-12-22T05:46:07.554Z,2.80
2022-12-22T05:48:38.683Z,1.87
2022-12-22T05:51:06.763Z,2.70
2022-12-22T05:53:33.317Z,2.25
2022-12-22T05:55:59.827Z,2.22
2022-12-22T05:58:26.387Z,2.42
2022-12-22T06:00:56.421Z,2.00
2022-12-22T06:03:22.939Z,1.80
2022-12-22T06:05:50.548Z,1.90
2022-12-22T06:08:17.040Z,2.00
2022-12-22T06:10:43.408Z,1.75
2022-12-22T06:13:09.866Z,2.50
2022-12-22T06:15:36.372Z,1.80
2022-12-22T06:18:02.964Z,1.90
2022-12-22T06:20:29.500Z,2.30
2022-12-22T06:22:55.919Z,1.60
2022-12-22T06:25:22.326Z,3.30
2022-12-22T06:27:48.728Z,1.80
2022-12-22T06:30:16.385Z,1.70
2022-12-22T06:32:42.914Z,1.70
2022-12-22T06:35:10.389Z,2.97
2022-12-22T06:37:37.002Z,1.60
2022-12-22T06:40:03.953Z,1.70
2022-12-22T06:42:48.977Z,1.80
2022-12-22T06:45:15.650Z,1.88
2022-12-22T06:47:42.198Z,2.08
2022-12-22T06:50:09.034Z,2.00
2022-12-22T06:52:35.572Z,2.10
2022-12-22T06:55:02.365Z,2.05
2022-12-22T06:57:29.628Z,3.45
2022-12-22T06:59:57.970Z,2.35
2022-12-22T07:02:25.188Z,3.47
2022-12-22T07:04:52.021Z,2.35
2022-12-22T07:07:18.538Z,2.30
2022-12-22T07:09:46.392Z,3.65
2022-12-22T07:12:13.327Z,2.65
2022-12-22T07:14:40.489Z,3.30
2022-12-22T07:17:07.201Z,2.22
2022-12-22T07:19:33.642Z,3.30
2022-12-22T07:22:00.118Z,2.28
2022-12-22T07:24:26.992Z,2.95
2022-12-22T07:26:53.525Z,2.87
2022-12-22T07:29:20.110Z,2.42
2022-12-22T07:31:46.772Z,2.35
2022-12-22T07:34:13.334Z,2.40
2022-12-22T07:36:39.904Z,2.28
2022-12-22T07:39:06.770Z,2.40
2022-12-22T07:41:51.974Z,3.00
2022-12-22T07:44:18.451Z,2.33
2022-12-22T07:46:45.055Z,2.63
2022-12-22T07:49:30.115Z,3.65
2022-12-22T07:51:57.721Z,3.77
2022-12-22T07:54:24.685Z,3.25
2022-12-22T07:56:52.200Z,3.05
2022-12-22T07:59:19.280Z,2.13
2022-12-22T08:01:47.189Z,2.80
2022-12-22T08:04:14.434Z,2.83
2022-12-22T08:06:41.292Z,2.85
2022-12-22T08:09:08.860Z,2.72
2022-12-22T08:11:35.890Z,3.35
2022-12-22T08:14:02.575Z,2.88
2022-12-22T08:16:29.336Z,3.47
2022-12-22T08:18:56.522Z,3.35
2022-12-22T08:21:23.112Z,3.50
2022-12-22T08:23:49.575Z,3.53
2022-12-22T08:26:31.163Z,2.00
2022-12-22T08:29:08.618Z,2.27
2022-12-22T08:31:35.660Z,3.65
2022-12-22T08:34:06.059Z,4.45
2022-12-22T08:36:36.138Z,2.15
2022-12-22T08:39:02.758Z,2.58
2022-12-22T08:41:48.277Z,2.23
2022-12-22T08:44:14.978Z,3.35
2022-12-22T08:46:41.462Z,3.42
2022-12-22T08:49:08.277Z,4.78
2022-12-22T08:51:34.793Z,5.57
2022-12-22T08:54:05.877Z,2.67
2022-12-22T08:56:33.253Z,5.55
2022-12-22T08:59:01.264Z,3.60
2022-12-22T09:01:27.727Z,2.80
2022-12-22T09:03:54.232Z,3.95
2022-12-22T09:06:27.259Z,2.77
2022-12-22T09:08:59.872Z,5.28
2022-12-22T09:11:27.917Z,5.35
2022-12-22T09:13:56.761Z,2.78
2022-12-22T09:16:24.996Z,2.75
2022-12-22T09:18:51.519Z,2.57
2022-12-22T09:21:18.124Z,5.47
2022-12-22T09:23:44.988Z,3.35
2022-12-22T09:26:14.047Z,2.47
2022-12-22T09:28:45.054Z,3.55
2022-12-22T09:31:14.998Z,2.10
2022-12-22T09:33:41.674Z,2.40
2022-12-22T09:36:10.515Z,1.90
2022-12-22T09:38:39.156Z,3.10
2022-12-22T09:41:23.783Z,1.92
2022-12-22T09:43:50.491Z,2.03
2022-12-22T09:46:24.147Z,2.25
2022-12-22T09:48:50.849Z,2.83
2022-12-22T09:51:24.416Z,3.90
2022-12-22T09:53:58.897Z,4.18
2022-12-22T09:56:27.248Z,4.97
2022-12-22T09:58:54.363Z,2.22
2022-12-22T10:01:46.993Z,6.78
2022-12-22T10:04:36.031Z,2.35
2022-12-22T10:07:26.085Z,2.65
2022-12-22T10:09:52.689Z,2.60
2022-12-22T10:12:24.602Z,3.90
2022-12-22T10:14:53.208Z,3.00
2022-12-22T10:17:19.564Z,2.55
2022-12-22T10:19:48.092Z,3.35
2022-12-22T10:22:35.052Z,3.10
2022-12-22T10:25:03.995Z,5.13
2022-12-22T10:27:33.407Z,2.28
2022-12-22T10:30:23.434Z,2.55
2022-12-22T10:33:04.871Z,2.72
2022-12-22T10:35:43.170Z,3.70
2022-12-22T10:38:32.899Z,3.35
2022-12-22T10:41:19.820Z,3.45
2022-12-22T10:43:53.120Z,1.90
2022-12-22T10:46:28.679Z,2.88
2022-12-22T10:49:10.010Z,2.57
2022-12-22T10:51:36.466Z,5.75
2022-12-22T10:54:03.001Z,2.65
2022-12-22T10:56:32.823Z,2.45
2022-12-22T10:59:02.300Z,2.83
2022-12-22T11:01:35.032Z,2.20
2022-12-22T11:04:23.748Z,3.42
2022-12-22T11:06:50.875Z,1.95
2022-12-22T11:09:33.296Z,2.67
2022-12-22T11:12:22.329Z,3.47
2022-12-22T11:15:00.832Z,2.50
2022-12-22T11:17:55.783Z,3.90
2022-12-22T11:20:40.428Z,2.85
2022-12-22T11:23:25.123Z,2.33
2022-12-22T11:26:18.808Z,2.28
2022-12-22T11:29:16.171Z,3.40
2022-12-22T11:32:19.610Z,2.33
2022-12-22T11:35:12.042Z,2.05
2022-12-22T11:37:50.301Z,4.70
2022-12-22T11:40:37.335Z,4.78
2022-12-22T11:43:32.769Z,3.73
2022-12-22T11:46:29.742Z,2.20
2022-12-22T11:49:13.453Z,2.70
2022-12-22T11:52:06.737Z,1.92
2022-12-22T11:54:58.043Z,2.50
2022-12-22T11:57:48.826Z,2.40
2022-12-22T12:00:19.330Z,4.88
2022-12-22T12:03:21.961Z,15.38
2022-12-22T12:06:04.513Z,4.30
2022-12-22T12:09:03.266Z,2.80
2022-12-22T12:11:39.290Z,3.43
2022-12-22T12:14:18.123Z,3.90
2022-12-22T12:17:14.811Z,4.50
2022-12-22T12:19:53.033Z,3.20
2022-12-22T12:22:34.409Z,9.88
2022-12-22T12:25:11.507Z,6.23
2022-12-22T12:28:01.298Z,3.70
2022-12-22T12:30:38.849Z,3.85
2022-12-22T12:33:36.977Z,3.88
2022-12-22T12:36:12.198Z,4.20
2022-12-22T12:39:07.425Z,4.53
2022-12-22T12:41:55.738Z,4.47
2022-12-22T12:44:26.860Z,6.13
2022-12-22T12:47:05.285Z,6.07
2022-12-22T12:49:34.900Z,4.88
2022-12-22T12:52:11.554Z,6.27
2022-12-22T12:54:47.763Z,5.30
2022-12-22T12:57:46.855Z,4.85
2022-12-22T13:00:32.079Z,4.20
2022-12-22T13:03:53.252Z,5.43
2022-12-22T13:06:31.024Z,4.73
2022-12-22T13:09:39.709Z,5.10
2022-12-22T13:12:11.814Z,6.95
2022-12-22T13:14:59.023Z,5.65
2022-12-22T13:17:49.110Z,4.40
2022-12-22T13:20:27.703Z,5.17
2022-12-22T13:22:56.971Z,4.63
2022-12-22T13:25:26.346Z,6.05
2022-12-22T13:27:53.007Z,4.53
2022-12-22T13:30:21.561Z,4.82
2022-12-22T13:32:50.184Z,5.50
2022-12-22T13:35:32.176Z,5.40
2022-12-22T13:37:59.642Z,6.22
2022-12-22T13:40:32.115Z,8.52
2022-12-22T13:43:11.413Z,4.60
2022-12-22T13:45:43.860Z,5.50
2022-12-22T13:48:25.039Z,6.43
2022-12-22T13:50:53.860Z,5.22
2022-12-22T13:54:12.148Z,12.48
2022-12-22T13:56:41.025Z,6.97
2022-12-22T13:59:17.841Z,7.10
2022-12-22T14:01:52.018Z,5.88
2022-12-22T14:04:18.520Z,6.20
2022-12-22T14:06:45.037Z,6.45
2022-12-22T14:09:11.543Z,4.80
2022-12-22T14:11:38.579Z,6.57
2022-12-22T14:14:18.066Z,5.15
2022-12-22T14:16:48.092Z,6.07
2022-12-22T14:19:17.143Z,16.25
2022-12-22T14:21:47.461Z,7.00
2022-12-22T14:24:22.360Z,6.17
2022-12-22T14:26:49.539Z,5.35
2022-12-22T14:29:22.050Z,6.90
2022-12-22T14:32:02.992Z,8.57
2022-12-22T14:34:32.557Z,6.45
2022-12-22T14:37:02.077Z,7.80
2022-12-22T14:39:31.623Z,6.07
2022-12-22T14:42:04.743Z,6.35
2022-12-22T14:44:46.069Z,6.50
2022-12-22T14:47:12.792Z,7.60
2022-12-22T14:49:47.431Z,5.97
2022-12-22T14:52:22.568Z,6.68
2022-12-22T14:54:51.318Z,5.10
2022-12-22T14:57:27.572Z,5.70
2022-12-22T15:00:34.176Z,5.10
2022-12-22T15:03:06.003Z,6.27
2022-12-22T15:05:38.929Z,5.03
2022-12-22T15:08:08.984Z,5.68
2022-12-22T15:10:44.369Z,7.05
2022-12-22T15:13:21.390Z,5.53
2022-12-22T15:15:50.501Z,5.20
2022-12-22T15:18:18.668Z,4.72
2022-12-22T15:20:45.159Z,4.70
2022-12-22T15:23:14.620Z,4.85
2022-12-22T15:25:41.205Z,7.15
2022-12-22T15:28:07.656Z,6.60
2022-12-22T15:30:34.247Z,6.75
2022-12-22T15:33:00.857Z,5.20
2022-12-22T15:35:33.473Z,5.85
2022-12-22T15:38:01.193Z,3.05
2022-12-22T15:40:28.672Z,3.77
2022-12-22T15:42:55.457Z,12.45
2022-12-22T15:45:22.467Z,15.30
2022-12-22T15:47:53.173Z,8.60
2022-12-22T15:50:51.130Z,5.60
2022-12-22T15:53:19.326Z,19.67
2022-12-22T15:55:48.699Z,14.45
2022-12-22T15:58:18.364Z,7.28
2022-12-22T16:00:44.999Z,10.25
2022-12-22T16:03:12.206Z,18.13
2022-12-22T16:05:40.283Z,7.50
2022-12-22T16:08:17.881Z,9.95
2022-12-22T16:10:45.866Z,5.25
2022-12-22T16:13:15.523Z,3.95
2022-12-22T16:15:42.383Z,3.63
2022-12-22T16:18:11.711Z,4.07
2022-12-22T16:20:41.262Z,3.30
2022-12-22T16:23:16.851Z,3.45
2022-12-22T16:25:44.790Z,9.65
2022-12-22T16:28:19.141Z,3.33
2022-12-22T16:30:46.046Z,3.30
2022-12-22T16:33:13.186Z,4.10
2022-12-22T16:35:40.461Z,3.10
2022-12-22T16:38:08.844Z,3.72
2022-12-22T16:40:45.102Z,2.90
2022-12-22T16:46:14.219Z,3.22
2022-12-22T16:48:49.752Z,3.75
2022-12-22T16:51:40.125Z,3.95
2022-12-22T16:54:06.630Z,7.57
2022-12-22T16:56:33.610Z,4.93
2022-12-22T16:59:00.911Z,3.03
2022-12-22T17:01:45.928Z,2.80
2022-12-22T17:04:32.044Z,2.88
2022-12-22T17:07:00.766Z,3.42
2022-12-22T17:09:57.289Z,3.10
2022-12-22T17:12:30.037Z,4.32
2022-12-22T17:14:58.293Z,4.22
2022-12-22T17:17:31.098Z,3.35
2022-12-22T17:19:58.585Z,2.95
2022-12-22T17:22:33.437Z,4.70
2022-12-22T17:25:03.998Z,4.45
2022-12-22T17:27:32.366Z,3.20
2022-12-22T17:30:01.774Z,3.88
2022-12-22T17:32:28.157Z,3.92
2022-12-22T17:34:54.525Z,8.93
2022-12-22T17:37:23.289Z,6.40
2022-12-22T17:40:01.552Z,6.28
2022-12-22T17:42:28.216Z,10.35
2022-12-22T17:44:54.620Z,8.25
2022-12-22T17:47:30.530Z,8.60
2022-12-22T17:49:58.610Z,8.48
2022-12-22T17:52:26.995Z,7.53
2022-12-22T17:54:54.001Z,5.45
2022-12-22T17:57:25.464Z,4.78
2022-12-22T17:59:51.924Z,5.90
2022-12-22T18:02:20.637Z,4.47
2022-12-22T18:04:48.685Z,6.72
2022-12-22T18:07:25.110Z,6.40
2022-12-22T18:09:58.589Z,6.35
2022-12-22T18:12:25.344Z,5.67
2022-12-22T18:14:52.113Z,10.98
2022-12-22T18:17:35.376Z,7.32
2022-12-22T18:20:02.904Z,8.55
2022-12-22T18:22:29.607Z,7.63
2022-12-22T18:24:56.717Z,10.43
2022-12-22T18:27:24.018Z,11.18
2022-12-22T18:29:50.490Z,12.20
2022-12-22T18:32:26.404Z,7.47
2022-12-22T18:34:54.428Z,10.85
2022-12-22T18:37:21.038Z,9.47
2022-12-22T18:39:47.563Z,11.25
2022-12-22T18:42:23.816Z,9.95
2022-12-22T18:44:51.053Z,9.30
2022-12-22T18:47:18.204Z,11.98
2022-12-22T18:49:45.174Z,14.77
2022-12-22T18:52:20.602Z,8.05
2022-12-22T18:54:47.925Z,7.57
2022-12-22T18:57:19.585Z,8.95
2022-12-22T18:59:47.542Z,12.73
2022-12-22T19:02:26.525Z,12.47
2022-12-22T19:04:54.142Z,16.02
2022-12-22T19:07:23.015Z,15.98
2022-12-22T19:09:50.058Z,16.75
2022-12-22T19:12:19.125Z,27.48
2022-12-22T19:14:49.032Z,15.33
2022-12-22T19:17:22.128Z,12.52
2022-12-22T19:19:48.560Z,18.67
2022-12-22T19:22:15.962Z,16.85
2022-12-22T19:24:46.069Z,12.63
2022-12-22T19:27:25.982Z,19.93
2022-12-22T19:30:03.575Z,14.52
2022-12-22T19:32:39.078Z,11.73
2022-12-22T19:35:13.658Z,12.95
2022-12-22T19:37:40.055Z,10.57
2022-12-22T19:40:07.183Z,13.03
2022-12-22T19:42:34.792Z,15.43
2022-12-22T19:45:08.498Z,14.98
2022-12-22T19:47:37.323Z,14.77
2022-12-22T19:50:03.943Z,12.07
2022-12-22T19:52:30.433Z,12.83
2022-12-22T19:54:56.847Z,11.65
2022-12-22T19:57:23.368Z,16.17
2022-12-22T19:59:52.613Z,21.67
2022-12-22T20:02:30.215Z,13.80
2022-12-22T20:04:57.265Z,16.83
2022-12-22T20:07:25.711Z,13.68
2022-12-22T20:09:52.538Z,12.75
2022-12-22T20:12:29.427Z,12.73
2022-12-22T20:14:56.031Z,11.93
2022-12-22T20:17:22.753Z,11.63
2022-12-22T20:19:49.256Z,12.85
2022-12-22T20:22:18.137Z,14.57
2022-12-22T20:24:48.661Z,8.68
2022-12-22T20:27:22.617Z,9.27
2022-12-22T20:29:49.466Z,9.87
2022-12-22T20:32:19.646Z,8.00
2022-12-22T20:34:48.844Z,7.47
2022-12-22T20:37:16.985Z,8.60
2022-12-22T20:39:45.770Z,5.25
2022-12-22T20:42:20.321Z,7.63
2022-12-22T20:45:02.539Z,6.53
2022-12-22T20:47:31.514Z,5.32
2022-12-22T20:49:58.004Z,6.40
2022-12-22T20:52:24.405Z,7.05
2022-12-22T20:54:50.878Z,6.07
2022-12-22T20:57:17.428Z,6.78
2022-12-22T20:59:44.383Z,7.32
2022-12-22T21:02:23.547Z,9.57
2022-12-22T21:04:50.407Z,10.65
2022-12-22T21:07:16.872Z,7.37
2022-12-22T21:09:43.415Z,7.35
2022-12-22T21:12:09.886Z,17.45
2022-12-22T21:14:36.310Z,14.32
2022-12-22T21:17:03.018Z,10.32
2022-12-22T21:19:29.694Z,13.57
2022-12-22T21:21:56.232Z,7.68
2022-12-22T21:24:22.687Z,5.80
2022-12-22T21:26:52.235Z,5.95
2022-12-22T21:29:22.275Z,7.28
2022-12-22T21:31:48.877Z,6.93
2022-12-22T21:34:15.404Z,4.50
2022-12-22T21:36:44.481Z,6.07
2022-12-22T21:39:29.925Z,6.82
2022-12-22T21:42:04.335Z,4.93
2022-12-22T21:44:34.220Z,7.57
2022-12-22T21:47:01.666Z,6.05
2022-12-22T21:49:31.068Z,7.30
2022-12-22T21:51:57.584Z,7.22
2022-12-22T21:54:25.326Z,4.22
2022-12-22T21:56:52.958Z,5.83
2022-12-22T21:59:20.047Z,6.20
2022-12-22T22:01:46.927Z,5.45
2022-12-22T22:04:13.865Z,6.18
2022-12-22T22:06:40.310Z,11.23
2022-12-22T22:09:07.257Z,7.20
2022-12-22T22:11:53.913Z,8.65
2022-12-22T22:14:20.298Z,12.18
2022-12-22T22:16:46.840Z,7.18
2022-12-22T22:19:13.897Z,6.30
2022-12-22T22:21:40.297Z,5.03
2022-12-22T22:24:06.878Z,5.90
2022-12-22T22:26:33.307Z,5.60
2022-12-22T22:28:59.751Z,7.90
2022-12-22T22:31:26.273Z,5.53
2022-12-22T22:33:52.766Z,7.87
2022-12-22T22:36:19.231Z,8.20
2022-12-22T22:38:45.691Z,6.68
2022-12-22T22:41:12.088Z,13.23
2022-12-22T22:43:38.449Z,11.63
2022-12-22T22:46:05.865Z,10.03
2022-12-22T22:48:32.458Z,6.38
2022-12-22T22:50:58.868Z,11.27
2022-12-22T22:53:25.294Z,5.65
2022-12-22T22:55:51.647Z,5.82
2022-12-22T22:58:18.147Z,4.17
2022-12-22T23:00:44.584Z,6.13
2022-12-22T23:03:11.119Z,4.00
2022-12-22T23:05:37.673Z,3.83
2022-12-22T23:08:04.264Z,4.22
2022-12-22T23:10:32.690Z,3.53
2022-12-22T23:13:02.663Z,4.05
2022-12-22T23:15:29.090Z,3.70
2022-12-22T23:17:55.518Z,2.63
2022-12-22T23:20:22.011Z,4.03
2022-12-22T23:22:48.397Z,5.20
2022-12-22T23:25:14.832Z,6.20
2022-12-22T23:27:41.373Z,3.08
2022-12-22T23:30:08.744Z,2.92
2022-12-22T23:32:35.173Z,3.50
2022-12-22T23:35:01.773Z,5.30
2022-12-22T23:37:28.172Z,3.33
2022-12-22T23:39:54.626Z,4.00
2022-12-22T23:42:22.532Z,4.72
2022-12-22T23:44:48.978Z,3.28
2022-12-22T23:47:15.434Z,5.17
2022-12-22T23:49:41.897Z,2.67
2022-12-22T23:52:08.269Z,4.38
2022-12-22T23:54:34.645Z,5.40
2022-12-22T23:57:01.057Z,5.72
2022-12-22T23:59:28.737Z,4.40
